createdAt,value
2022-09-13T00:02:17.619Z,100150.72
2022-09-13T00:04:44.268Z,100148.41
2022-09-13T00:07:10.931Z,100145.72
2022-09-13T00:09:37.742Z,100154.53
2022-09-13T00:12:04.811Z,100146.78
2022-09-13T00:14:31.550Z,100150.50
2022-09-13T00:16:58.260Z,100146.53
2022-09-13T00:19:25.020Z,100159.66
2022-09-13T00:21:51.629Z,100153.50
2022-09-13T00:24:18.269Z,100139.59
2022-09-13T00:26:45.143Z,100121.28
2022-09-13T00:29:11.747Z,100093.41
2022-09-13T00:31:38.414Z,100072.22
2022-09-13T00:34:05.069Z,100077.63
2022-09-13T00:36:31.869Z,100069.63
2022-09-13T00:39:01.079Z,100064.13
2022-09-13T00:41:27.893Z,100073.47
2022-09-13T00:44:01.128Z,100070.72
2022-09-13T00:46:50.211Z,100084.44
2022-09-13T00:49:40.759Z,100096.91
2022-09-13T00:52:18.050Z,100087.38
2022-09-13T00:55:08.857Z,100083.78
2022-09-13T00:57:37.718Z,100091.28
2022-09-13T01:00:18.861Z,100090.19
2022-09-13T01:02:59.929Z,100081.38
2022-09-13T01:05:36.900Z,100086.81
2022-09-13T01:08:14.974Z,100083.25
2022-09-13T01:10:45.161Z,100076.78
2022-09-13T01:13:21.477Z,100073.25
2022-09-13T01:15:49.009Z,100072.84
2022-09-13T01:18:16.858Z,100068.03
2022-09-13T01:21:30.452Z,100060.53
2022-09-13T01:24:33.839Z,100063.25
2022-09-13T01:28:05.653Z,100052.63
2022-09-13T01:30:46.992Z,100048.84
2022-09-13T01:34:07.293Z,100039.88
2022-09-13T01:37:13.283Z,100038.81
2022-09-13T01:40:09.538Z,100021.97
2022-09-13T01:43:22.761Z,100023.00
2022-09-13T01:46:19.131Z,100018.81
2022-09-13T01:49:40.342Z,100002.31
2022-09-13T01:52:30.446Z,100004.19
2022-09-13T01:55:29.084Z,99998.94
2022-09-13T01:58:27.473Z,99998.94
2022-09-13T02:01:08.840Z,100002.94
2022-09-13T02:04:08.752Z,100003.16
2022-09-13T02:06:47.822Z,99992.72
2022-09-13T02:09:24.568Z,99991.25
2022-09-13T02:12:06.098Z,99995.22
2022-09-13T02:14:40.099Z,99998.94
2022-09-13T02:17:20.317Z,99995.03
2022-09-13T02:20:12.618Z,99987.91
2022-09-13T02:22:52.713Z,99986.56
2022-09-13T02:25:26.549Z,99975.94
2022-09-13T02:28:02.659Z,99976.13
2022-09-13T02:30:34.889Z,99971.75
2022-09-13T02:33:19.746Z,99961.72
2022-09-13T02:36:13.464Z,99961.50
2022-09-13T02:38:52.714Z,99959.19
2022-09-13T02:41:35.624Z,99949.38
2022-09-13T02:44:32.363Z,99944.59
2022-09-13T02:47:39.768Z,99942.72
2022-09-13T02:50:29.764Z,99936.88
2022-09-13T02:53:26.171Z,99934.16
2022-09-13T02:56:35.155Z,99947.53
2022-09-13T02:59:22.849Z,99945.66
2022-09-13T03:02:14.774Z,99936.47
2022-09-13T03:04:41.592Z,99931.91
2022-09-13T03:07:17.846Z,99937.69
2022-09-13T03:09:59.996Z,99930.38
2022-09-13T03:12:47.644Z,99932.44
2022-09-13T03:15:29.643Z,99924.50
2022-09-13T03:18:26.717Z,99921.31
2022-09-13T03:21:26.648Z,99908.78
2022-09-13T03:24:23.465Z,99908.16
2022-09-13T03:27:24.616Z,99915.66
2022-09-13T03:30:13.253Z,99919.84
2022-09-13T03:33:18.135Z,99928.84
2022-09-13T03:36:18.250Z,99920.31
2022-09-13T03:39:29.157Z,99913.00
2022-09-13T03:42:06.270Z,99909.03
2022-09-13T03:44:41.023Z,99904.66
2022-09-13T03:47:08.974Z,99902.34
2022-09-13T03:49:39.844Z,99901.34
2022-09-13T03:52:07.714Z,99896.28
2022-09-13T03:54:38.638Z,99895.25
2022-09-13T03:57:17.584Z,99890.47
2022-09-13T03:59:56.572Z,99884.84
2022-09-13T04:02:26.954Z,99884.00
2022-09-13T04:04:53.831Z,99881.28
2022-09-13T04:07:25.348Z,99887.34
2022-09-13T04:09:52.435Z,99888.16
2022-09-13T04:12:19.628Z,99883.38
2022-09-13T04:14:46.343Z,99890.50
2022-09-13T04:17:14.796Z,99887.41
2022-09-13T04:19:45.526Z,99893.47
2022-09-13T04:22:12.717Z,99890.34
2022-09-13T04:24:40.484Z,99886.41
2022-09-13T04:27:07.609Z,99889.13
2022-09-13T04:29:34.215Z,99865.28
2022-09-13T04:32:03.777Z,99881.81
2022-09-13T04:34:30.537Z,99895.63
2022-09-13T04:36:57.387Z,99892.72
2022-09-13T04:39:24.036Z,99889.16
2022-09-13T04:41:54.571Z,99894.59
2022-09-13T04:44:24.219Z,99881.63
2022-09-13T04:46:51.529Z,99887.06
2022-09-13T04:49:20.051Z,99888.75
2022-09-13T04:51:47.210Z,99885.84
2022-09-13T04:54:16.454Z,99900.66
2022-09-13T04:56:47.691Z,99893.56
2022-09-13T04:59:16.747Z,99894.41
2022-09-13T05:01:43.568Z,99902.38
2022-09-13T05:04:10.818Z,99908.63
2022-09-13T05:06:38.206Z,99907.59
2022-09-13T05:09:05.729Z,99911.16
2022-09-13T05:11:33.294Z,99919.06
2022-09-13T05:14:01.161Z,99922.44
2022-09-13T05:16:32.759Z,99916.63
2022-09-13T05:19:01.257Z,99929.16
2022-09-13T05:21:30.193Z,99922.69
2022-09-13T05:23:59.192Z,99919.09
2022-09-13T05:26:31.237Z,99929.78
2022-09-13T05:29:01.765Z,99924.53
2022-09-13T05:31:33.573Z,99927.25
2022-09-13T05:34:07.203Z,99921.63
2022-09-13T05:36:34.732Z,99930.41
2022-09-13T05:41:49.184Z,99931.66
2022-09-13T05:44:15.936Z,99928.94
2022-09-13T05:46:46.268Z,99941.09
2022-09-13T05:49:13.801Z,99945.47
2022-09-13T05:51:41.027Z,99955.53
2022-09-13T05:54:08.369Z,99943.22
2022-09-13T05:56:34.994Z,99939.66
2022-09-13T05:59:01.519Z,99941.97
2022-09-13T06:01:30.006Z,99934.47
2022-09-13T06:03:59.345Z,99930.50
2022-09-13T06:06:26.752Z,99937.41
2022-09-13T06:08:56.518Z,99934.50
2022-09-13T06:11:29.023Z,99930.09
2022-09-13T06:13:55.755Z,99932.81
2022-09-13T06:16:22.727Z,99943.06
2022-09-13T06:18:51.983Z,99948.91
2022-09-13T06:21:27.139Z,99954.97
2022-09-13T06:23:57.079Z,99955.16
2022-09-13T06:26:28.353Z,99949.94
2022-09-13T06:28:58.184Z,99944.69
2022-09-13T06:31:28.373Z,99949.31
2022-09-13T06:34:00.162Z,99953.38
2022-09-13T06:36:27.086Z,99957.22
2022-09-13T06:38:54.104Z,99964.91
2022-09-13T06:41:24.121Z,99949.97
2022-09-13T06:43:58.715Z,99956.53
2022-09-13T06:46:30.912Z,99961.09
2022-09-13T06:49:08.129Z,99962.97
2022-09-13T06:51:36.467Z,99962.13
2022-09-13T06:54:04.121Z,99974.97
2022-09-13T06:56:36.061Z,99973.06
2022-09-13T06:59:10.326Z,99973.44
2022-09-13T07:01:43.772Z,99965.97
2022-09-13T07:04:22.514Z,99968.88
2022-09-13T07:06:50.197Z,99971.78
2022-09-13T07:09:22.191Z,99970.72
2022-09-13T07:11:56.442Z,99968.09
2022-09-13T07:14:29.992Z,99963.19
2022-09-13T07:16:56.844Z,99975.19
2022-09-13T07:19:27.622Z,99976.41
2022-09-13T07:21:56.954Z,99974.97
2022-09-13T07:24:24.914Z,99963.38
2022-09-13T07:26:52.010Z,99972.03
2022-09-13T07:29:23.612Z,99976.53
2022-09-13T07:31:54.505Z,99974.19
2022-09-13T07:34:25.524Z,99972.72
2022-09-13T07:36:53.245Z,99979.22
2022-09-13T07:39:22.707Z,99973.28
2022-09-13T07:41:50.985Z,99979.56
2022-09-13T07:44:17.638Z,99985.31
2022-09-13T07:46:44.573Z,99995.34
2022-09-13T07:49:17.912Z,99999.22
2022-09-13T07:51:45.445Z,100006.03
2022-09-13T07:54:18.632Z,100012.59
2022-09-13T07:56:46.317Z,100009.19
2022-09-13T07:59:16.916Z,99999.03
2022-09-13T08:01:52.018Z,100005.19
2022-09-13T08:04:25.515Z,100009.81
2022-09-13T08:06:52.719Z,100008.66
2022-09-13T08:09:19.682Z,100012.50
2022-09-13T08:11:53.014Z,100007.16
2022-09-13T08:14:23.293Z,100015.38
2022-09-13T08:16:51.027Z,100023.63
2022-09-13T08:19:19.338Z,100020.00
2022-09-13T08:21:47.048Z,100019.41
2022-09-13T08:24:21.370Z,100013.06
2022-09-13T08:26:49.757Z,100023.78
2022-09-13T08:29:18.158Z,100025.28
2022-09-13T08:31:45.543Z,100018.56
2022-09-13T08:34:15.995Z,100025.13
2022-09-13T08:36:48.083Z,100015.91
2022-09-13T08:45:33.163Z,100017.03
2022-09-13T08:48:16.151Z,100027.25
2022-09-13T08:50:45.111Z,100022.63
2022-09-13T08:53:31.307Z,100033.53
2022-09-13T08:59:41.048Z,100033.66
2022-09-13T09:03:14.785Z,100025.41
2022-09-13T09:05:52.473Z,100024.69
2022-09-13T09:11:51.608Z,100015.53
2022-09-13T09:14:36.360Z,100011.34
2022-09-13T09:17:24.449Z,100020.13
2022-09-13T09:20:14.495Z,100027.47
2022-09-13T09:22:44.824Z,100019.69
2022-09-13T09:25:14.330Z,100021.88
2022-09-13T09:27:41.160Z,100022.47
2022-09-13T09:30:15.114Z,100024.22
2022-09-13T09:32:57.288Z,100030.88
2022-09-13T09:36:11.089Z,100026.25
2022-09-13T09:38:43.705Z,100017.34
2022-09-13T09:41:32.654Z,100019.75
2022-09-13T09:44:31.351Z,100019.84
2022-09-13T09:47:12.072Z,100026.19
2022-09-13T09:50:18.966Z,100029.44
2022-09-13T09:53:16.814Z,100027.66
2022-09-13T09:56:03.800Z,100022.38
2022-09-13T09:58:46.325Z,100027.41
2022-09-13T10:01:34.993Z,100024.91
2022-09-13T10:04:08.598Z,100012.72
2022-09-13T10:06:40.442Z,100016.53
2022-09-13T10:09:20.670Z,100010.66
2022-09-13T10:11:57.035Z,100004.41
2022-09-13T10:17:30.439Z,100021.84
2022-09-13T10:20:26.583Z,100012.50
2022-09-13T10:23:19.777Z,100019.91
2022-09-13T10:26:10.308Z,100007.25
2022-09-13T10:29:11.130Z,100004.19
2022-09-13T10:31:46.743Z,100011.06
2022-09-13T10:34:35.642Z,100005.31
2022-09-13T10:37:43.410Z,100002.84
2022-09-13T10:40:34.479Z,99999.59
2022-09-13T10:43:15.122Z,99997.47
2022-09-13T10:45:42.833Z,99992.81
2022-09-13T10:48:20.703Z,99998.84
2022-09-13T10:51:27.831Z,99989.59
2022-09-13T10:54:24.220Z,99983.06
2022-09-13T10:56:53.060Z,99991.38
2022-09-13T10:59:30.567Z,99988.94
2022-09-13T11:02:34.917Z,99978.03
2022-09-13T11:05:26.974Z,99991.53
2022-09-13T11:08:22.462Z,99991.31
2022-09-13T11:11:23.760Z,99991.47
2022-09-13T11:14:21.131Z,99984.09
2022-09-13T11:17:16.883Z,99989.28
2022-09-13T11:20:18.316Z,99992.94
2022-09-13T11:23:50.491Z,99990.19
2022-09-13T11:26:38.864Z,99994.44
2022-09-13T11:29:52.952Z,99993.78
2022-09-13T11:32:39.969Z,99982.13
2022-09-13T11:35:28.861Z,99988.25
2022-09-13T11:38:24.767Z,99983.09
2022-09-13T11:41:39.834Z,99978.44
2022-09-13T11:44:31.899Z,99985.44
2022-09-13T11:47:24.721Z,99980.88
2022-09-13T11:50:03.308Z,99976.31
2022-09-13T11:53:02.040Z,99978.75
2022-09-13T11:55:40.657Z,99976.44
2022-09-13T11:59:12.283Z,99984.13
2022-09-13T12:02:01.223Z,99983.66
2022-09-13T12:05:17.934Z,99987.19
2022-09-13T12:07:54.088Z,99975.88
2022-09-13T12:10:39.145Z,99976.84
2022-09-13T12:13:18.478Z,99978.84
2022-09-13T12:15:52.680Z,99971.94
2022-09-13T12:18:36.396Z,99976.25
2022-09-13T12:21:29.365Z,99976.97
2022-09-13T12:24:43.397Z,99972.47
2022-09-13T12:27:54.501Z,99969.84
2022-09-13T12:30:47.250Z,99976.75
2022-09-13T12:33:16.462Z,99967.47
2022-09-13T12:36:16.621Z,99977.03
2022-09-13T12:39:46.804Z,99981.28
2022-09-13T12:43:29.354Z,99974.72
2022-09-13T12:47:12.178Z,99981.09
2022-09-13T12:50:01.727Z,99991.06
2022-09-13T12:52:52.028Z,99990.31
2022-09-13T12:55:53.952Z,99980.66
2022-09-13T12:59:08.183Z,99984.72
2022-09-13T13:01:35.513Z,99995.25
2022-09-13T13:04:17.220Z,99993.00
2022-09-13T13:07:16.259Z,99983.34
2022-09-13T13:09:52.617Z,99989.97
2022-09-13T13:12:38.718Z,99980.16
2022-09-13T13:15:31.094Z,99980.56
2022-09-13T13:17:58.001Z,99985.84
2022-09-13T13:20:55.948Z,99977.63
2022-09-13T13:23:39.860Z,99978.16
2022-09-13T13:26:22.008Z,99982.00
2022-09-13T13:29:31.826Z,99980.94
2022-09-13T13:32:02.372Z,99974.91
2022-09-13T13:34:45.017Z,99976.47
2022-09-13T13:37:11.592Z,99984.63
2022-09-13T13:39:47.898Z,99982.59
2022-09-13T13:42:31.656Z,99984.59
2022-09-13T13:45:26.899Z,99973.59
2022-09-13T13:48:33.812Z,99991.41
2022-09-13T13:51:27.109Z,99980.81
2022-09-13T13:54:22.724Z,99970.97
2022-09-13T13:56:50.465Z,99979.72
2022-09-13T13:59:33.160Z,99989.66
2022-09-13T14:02:01.830Z,99972.31
2022-09-13T14:05:16.404Z,99970.00
2022-09-13T14:08:43.521Z,99967.22
2022-09-13T14:11:43.027Z,99974.16
2022-09-13T14:14:41.463Z,99974.78
2022-09-13T14:18:03.430Z,99968.72
2022-09-13T14:20:30.151Z,99990.44
2022-09-13T14:23:33.614Z,99979.59
2022-09-13T14:26:01.574Z,99970.06
2022-09-13T14:28:29.217Z,99977.44
2022-09-13T14:30:59.527Z,99966.91
2022-09-13T14:33:37.252Z,99958.19
2022-09-13T14:36:21.831Z,99975.31
2022-09-13T14:39:00.567Z,99960.69
2022-09-13T14:41:37.251Z,99957.06
2022-09-13T14:44:29.090Z,99950.00
2022-09-13T14:47:29.790Z,99960.16
2022-09-13T14:53:14.152Z,99954.59
2022-09-13T14:55:51.922Z,99956.97
2022-09-13T14:58:32.660Z,99944.97
2022-09-13T15:01:07.153Z,99959.19
2022-09-13T15:03:36.911Z,99958.22
2022-09-13T15:06:05.562Z,99962.41
2022-09-13T15:08:35.282Z,99961.59
2022-09-13T15:11:07.897Z,99962.56
2022-09-13T15:13:35.272Z,99950.06
2022-09-13T15:16:02.763Z,99947.56
2022-09-13T15:18:37.156Z,99954.53
2022-09-13T15:21:18.694Z,99958.25
2022-09-13T15:26:33.746Z,99945.00
2022-09-13T15:29:03.297Z,99956.63
2022-09-13T15:31:35.472Z,99952.66
2022-09-13T15:34:17.035Z,99952.69
2022-09-13T15:36:47.659Z,99963.06
2022-09-13T15:39:21.568Z,99947.41
2022-09-13T15:41:58.192Z,99959.66
2022-09-13T15:44:26.973Z,99951.91
2022-09-13T15:47:04.954Z,99951.53
2022-09-13T15:49:32.823Z,99953.69
2022-09-13T15:52:03.728Z,99965.34
2022-09-13T15:54:37.153Z,99959.38
2022-09-13T15:57:21.502Z,99954.06
2022-09-13T15:59:48.864Z,99953.13
2022-09-13T16:02:28.389Z,99958.88
2022-09-13T16:04:56.762Z,99960.56
2022-09-13T16:07:26.593Z,99959.50
2022-09-13T16:09:56.754Z,99952.31
2022-09-13T16:12:24.539Z,99940.25
2022-09-13T16:14:51.719Z,99942.38
2022-09-13T16:17:28.239Z,99946.25
2022-09-13T16:19:55.807Z,99943.44
2022-09-13T16:22:23.315Z,99941.88
2022-09-13T16:24:50.217Z,99941.28
2022-09-13T16:27:20.576Z,99944.69
2022-09-13T16:29:47.947Z,99944.09
2022-09-13T16:32:15.628Z,99938.66
2022-09-13T16:34:44.247Z,99936.81
2022-09-13T16:37:17.614Z,99935.31
2022-09-13T16:39:45.673Z,99936.41
2022-09-13T16:42:17.367Z,99941.88
2022-09-13T16:44:44.632Z,99932.47
2022-09-13T16:47:11.441Z,99928.91
2022-09-13T16:49:38.484Z,99932.28
2022-09-13T16:52:05.763Z,99934.16
2022-09-13T16:54:34.428Z,99933.56
2022-09-13T16:57:04.496Z,99929.38
2022-09-13T16:59:34.701Z,99932.72
2022-09-13T17:02:01.559Z,99927.91
2022-09-13T17:04:29.860Z,99941.75
2022-09-13T17:06:56.701Z,99945.72
2022-09-13T17:09:26.488Z,99938.41
2022-09-13T17:11:53.922Z,99941.13
2022-09-13T17:14:21.764Z,99936.72
2022-09-13T17:16:56.465Z,99945.94
2022-09-13T17:19:35.571Z,99944.47
2022-09-13T17:22:06.065Z,99946.97
2022-09-13T17:24:34.219Z,99944.88
2022-09-13T17:27:00.893Z,99949.06
2022-09-13T17:29:30.962Z,99950.97
2022-09-13T17:32:01.338Z,99954.75
2022-09-13T17:34:28.867Z,99957.66
2022-09-13T17:36:55.615Z,99977.13
2022-09-13T17:39:22.694Z,99964.06
2022-09-13T17:41:50.161Z,99961.63
2022-09-13T17:44:17.475Z,99950.81
2022-09-13T17:46:45.548Z,99959.50
2022-09-13T17:49:12.328Z,99958.16
2022-09-13T17:51:39.114Z,99947.88
2022-09-13T17:54:10.105Z,99953.91
2022-09-13T17:56:44.340Z,99950.31
2022-09-13T17:59:19.984Z,99946.94
2022-09-13T18:01:57.953Z,99954.66
2022-09-13T18:04:28.205Z,99963.00
2022-09-13T18:06:55.483Z,99961.72
2022-09-13T18:09:22.611Z,99965.72
2022-09-13T18:11:52.300Z,99962.16
2022-09-13T18:14:21.411Z,99959.22
2022-09-13T18:16:55.343Z,99961.47
2022-09-13T18:19:44.320Z,99955.03
2022-09-13T18:22:11.439Z,99952.19
2022-09-13T18:24:38.118Z,99955.78
2022-09-13T18:27:04.927Z,99956.44
2022-09-13T18:29:32.890Z,99963.16
2022-09-13T18:32:00.210Z,99960.03
2022-09-13T18:34:27.849Z,99957.94
2022-09-13T18:36:54.756Z,99950.22
2022-09-13T18:39:23.573Z,99960.03
2022-09-13T18:41:50.535Z,99968.22
2022-09-13T18:44:18.672Z,99973.47
2022-09-13T18:46:47.432Z,99971.84
2022-09-13T18:49:15.050Z,99967.63
2022-09-13T18:51:45.114Z,99965.91
2022-09-13T18:54:20.218Z,99958.78
2022-09-13T18:56:54.946Z,99973.00
2022-09-13T18:59:21.646Z,99971.84
2022-09-13T19:01:48.910Z,99962.06
2022-09-13T19:04:19.756Z,99971.88
2022-09-13T19:06:54.049Z,99961.03
2022-09-13T19:09:22.825Z,99962.75
2022-09-13T19:11:53.442Z,99966.47
2022-09-13T19:14:27.650Z,99966.28
2022-09-13T19:17:03.035Z,99969.41
2022-09-13T19:19:31.106Z,99965.84
2022-09-13T19:21:58.180Z,99967.50
2022-09-13T19:24:25.225Z,99961.88
2022-09-13T19:26:53.311Z,99957.03
2022-09-13T19:29:23.992Z,99956.19
2022-09-13T19:31:53.016Z,99960.78
2022-09-13T19:34:23.706Z,99960.97
2022-09-13T19:36:58.146Z,99959.31
2022-09-13T19:39:30.091Z,99963.06
2022-09-13T19:42:00.781Z,99969.34
2022-09-13T19:44:28.459Z,99961.56
2022-09-13T19:47:23.708Z,99964.66
2022-09-13T19:49:41.927Z,99956.66
2022-09-13T19:52:08.569Z,99961.84
2022-09-13T19:54:35.361Z,99962.66
2022-09-13T19:57:03.380Z,99959.03
2022-09-13T19:59:31.498Z,99960.69
2022-09-13T20:01:58.339Z,99964.19
2022-09-13T20:04:25.979Z,99966.19
2022-09-13T20:06:52.970Z,99966.16
2022-09-13T20:09:21.278Z,99963.38
2022-09-13T20:11:49.452Z,99953.88
2022-09-13T20:14:20.274Z,99952.63
2022-09-13T20:16:50.527Z,99955.50
2022-09-13T20:22:08.777Z,99933.88
2022-09-13T20:24:35.715Z,99942.91
2022-09-13T20:27:02.614Z,99948.78
2022-09-13T20:29:29.276Z,99957.75
2022-09-13T20:31:56.007Z,99959.44
2022-09-13T20:34:22.716Z,99947.28
2022-09-13T20:36:52.145Z,99951.50
2022-09-13T20:39:18.865Z,99954.88
2022-09-13T20:41:49.868Z,99943.16
2022-09-13T20:44:16.745Z,99959.28
2022-09-13T20:46:48.803Z,99942.81
2022-09-13T20:49:15.529Z,99941.19
2022-09-13T20:51:42.351Z,99946.25
2022-09-13T20:54:13.087Z,99950.44
2022-09-13T20:56:40.369Z,99948.53
2022-09-13T20:59:07.104Z,99944.13
2022-09-13T21:01:35.099Z,99940.41
2022-09-13T21:04:03.523Z,99940.41
2022-09-13T21:06:39.735Z,99943.94
2022-09-13T21:09:06.859Z,99935.63
2022-09-13T21:11:36.678Z,99938.13
2022-09-13T21:14:09.051Z,99935.84
2022-09-13T21:16:41.224Z,99932.13
2022-09-13T21:19:09.140Z,99933.38
2022-09-13T21:21:41.932Z,99934.03
2022-09-13T21:24:14.317Z,99932.34
2022-09-13T21:26:44.131Z,99941.16
2022-09-13T21:29:12.326Z,99943.25
2022-09-13T21:31:41.397Z,99938.47
2022-09-13T21:34:16.295Z,99935.75
2022-09-13T21:36:46.256Z,99944.72
2022-09-13T21:39:16.343Z,99937.84
2022-09-13T21:41:43.730Z,99944.09
2022-09-13T21:44:11.449Z,99943.03
2022-09-13T21:46:40.436Z,99941.19
2022-09-13T21:49:12.289Z,99935.75
2022-09-13T21:51:48.291Z,99935.31
2022-09-13T21:54:19.056Z,99935.91
2022-09-13T21:56:53.993Z,99934.84
2022-09-13T21:59:24.018Z,99932.69
2022-09-13T22:01:54.149Z,99938.75
2022-09-13T22:04:27.065Z,99937.94
2022-09-13T22:06:56.822Z,99939.81
2022-09-13T22:09:27.269Z,99939.63
2022-09-13T22:11:55.720Z,99933.13
2022-09-13T22:14:23.139Z,99928.53
2022-09-13T22:16:53.010Z,99933.78
2022-09-13T22:19:26.462Z,99928.16
2022-09-13T22:21:59.189Z,99926.09
2022-09-13T22:24:32.099Z,99924.44
2022-09-13T22:27:00.107Z,99929.28
2022-09-13T22:29:28.155Z,99928.03
2022-09-13T22:31:55.508Z,99929.50
2022-09-13T22:34:25.527Z,99931.00
2022-09-13T22:36:55.313Z,99926.47
2022-09-13T22:39:22.297Z,99921.41
2022-09-13T22:41:49.053Z,99910.81
2022-09-13T22:44:15.694Z,99917.28
2022-09-13T22:46:46.006Z,99911.19
2022-09-13T22:49:20.181Z,99930.59
2022-09-13T22:51:48.321Z,99920.97
2022-09-13T22:54:19.209Z,99919.69
2022-09-13T22:56:48.922Z,99923.00
2022-09-13T22:59:21.354Z,99910.28
2022-09-13T23:01:49.647Z,99912.13
2022-09-13T23:04:16.657Z,99913.59
2022-09-13T23:06:44.520Z,99917.72
2022-09-13T23:09:17.816Z,99914.59
2022-09-13T23:11:45.902Z,99921.69
2022-09-13T23:14:16.715Z,99909.16
2022-09-13T23:16:50.991Z,99926.28
2022-09-13T23:19:22.423Z,99921.03
2022-09-13T23:21:51.874Z,99915.19
2022-09-13T23:24:19.961Z,99914.94
2022-09-13T23:26:47.843Z,99918.84
2022-09-13T23:29:18.710Z,99919.44
2022-09-13T23:31:47.630Z,99919.19
2022-09-13T23:34:17.812Z,99917.06
2022-09-13T23:36:46.468Z,99917.44
2022-09-13T23:39:18.372Z,99912.81
2022-09-13T23:41:49.335Z,99913.84
2022-09-13T23:44:16.899Z,99919.84
2022-09-13T23:46:44.828Z,99911.28
2022-09-13T23:49:11.536Z,99916.38
2022-09-13T23:51:38.455Z,99909.41
2022-09-13T23:54:06.671Z,99913.56
2022-09-13T23:56:34.937Z,99908.25
2022-09-13T23:59:04.579Z,99911.75
